Terminal Aerodrome Forecast
Issued by NWS

Home | Current Version | Previous Version | Text Only | Print | Product List | Glossary On
Versions: 1 2 3 4 5 6 7 8 9 10 11 12 13 14
000
FTUS45 KABQ 061100
TAFAEG
TAF
KAEG 061133Z 0612/0712 25010KT P6SM FEW040 BKN100
     FM061800 23014G23KT P6SM VCSH SCT070 SCT120
      TEMPO 0620/0624 VRB18G28KT BKN060
     FM070200 27007KT P6SM SCT070 SCT120
     FM070800 31006KT P6SM FEW120=

USA.gov is the U.S. government's official web portal to all federal, state and local government web resources and services.